.
WxDataArchive / Data Records for 2011-04-09
2011-04-08 April 2011 2011-04-10

Data Records for Saturday, 09 April 2011

Time	Temp	Chill	HIndex	Humid	Dewpt	 Wind 	HiWind	WindDir	Rain 	Barom 
-----	----	-----	------	-----	-----	------	------	-------	-----	----- 
00:00	46.4	46.4	46.4	88	43.0	3	6	90	0.00	30.043 
00:05	46.2	46.2	46.2	88	42.8	2	9	112	0.00	30.043 
00:10	46.2	46.2	46.2	88	42.8	2	9	90	0.00	30.043 
00:15	46.2	46.2	46.2	88	42.8	2	6	45	0.00	30.044 
00:20	46.2	46.2	46.2	88	42.8	2	6	112	0.00	30.044 
00:25	46.2	46.2	46.2	88	42.8	1	4	112	0.00	30.044 
00:30	46.1	46.1	46.1	88	42.7	2	6	112	0.00	30.046 
00:35	46.1	46.1	46.1	88	42.7	2	6	90	0.00	30.046 
00:40	46.0	46.0	46.0	87	42.4	3	7	90	0.00	30.046 
00:45	46.0	46.0	46.0	87	42.4	3	10	112	0.00	30.037 
00:50	46.0	46.0	46.0	87	42.4	3	10	112	0.00	30.037 
00:55	46.0	46.0	46.0	87	42.4	2	7	112	0.00	30.037 
01:00	45.8	45.8	45.8	87	42.2	3	10	90	0.00	30.034 
01:05	45.8	45.8	45.8	87	42.2	3	9	90	0.00	30.034 
01:10	45.8	45.8	45.8	87	42.2	3	6	112	0.00	30.034 
01:15	45.8	45.8	45.8	87	42.2	2	6	112	0.00	30.044 
01:20	45.8	45.8	45.8	88	42.5	2	4	112	0.00	30.044 
01:25	45.8	45.8	45.8	88	42.5	2	4	112	0.00	30.044 
01:30	45.7	45.7	45.7	88	42.4	2	6	112	0.00	30.050 
01:35	45.7	45.7	45.7	88	42.4	2	4	90	0.00	30.050 
01:40	45.7	45.7	45.7	88	42.4	1	4	90	0.00	30.050 
01:45	45.7	45.7	45.7	88	42.4	1	4	90	0.00	30.056 
01:50	45.7	45.7	45.7	88	42.4	1	4	90	0.00	30.056 
01:55	45.5	45.5	45.5	88	42.2	1	2	90	0.00	30.056 
02:00	45.5	45.5	45.5	88	42.2	1	3	90	0.00	30.046 
02:05	45.5	45.5	45.5	88	42.2	1	4	90	0.00	30.046 
02:10	45.4	45.4	45.4	88	42.1	2	6	90	0.00	30.046 
02:15	45.4	45.4	45.4	88	42.1	1	3	90	0.00	30.043 
02:20	45.4	45.4	45.4	88	42.1	1	3	90	0.00	30.043 
02:25	45.2	45.2	45.2	88	41.9	1	3	90	0.00	30.043 
02:30	45.2	45.2	45.2	88	41.9	1	3	90	0.00	30.045 
02:35	45.2	45.2	45.2	88	41.9	2	4	90	0.00	30.045 
02:40	45.2	45.2	45.2	88	41.9	1	3	90	0.00	30.045 
02:45	45.2	45.2	45.2	88	41.9	0	2	90	0.00	30.044 
02:50	45.2	45.2	45.2	88	41.9	0	3	90	0.00	30.044 
02:55	45.2	45.2	45.2	88	41.9	0	2	90	0.00	30.044 
03:00	45.1	45.1	45.1	88	41.8	0	2	90	0.00	30.035 
03:05	45.1	45.1	45.1	88	41.8	1	2	90	0.00	30.035 
03:10	45.1	45.1	45.1	88	41.8	1	3	90	0.00	30.035 
03:15	45.1	45.1	45.1	88	41.8	1	3	90	0.00	30.032 
03:20	44.9	44.9	44.9	88	41.6	0	2	90	0.00	30.032 
03:25	44.9	44.9	44.9	88	41.6	1	2	90	0.00	30.032 
03:30	44.9	44.9	44.9	88	41.6	1	4	90	0.00	30.030 
03:35	44.9	44.9	44.9	88	41.6	1	2	90	0.00	30.030 
03:40	44.9	44.9	44.9	88	41.6	1	3	90	0.00	30.030 
03:45	44.9	44.9	44.9	88	41.6	0	2	90	0.00	30.023 
03:50	44.8	44.8	44.8	88	41.5	1	4	90	0.00	30.023 
03:55	44.8	44.8	44.8	88	41.5	1	4	90	0.00	30.023 
04:00	44.8	44.8	44.8	88	41.5	0	1	90	0.00	30.037 
04:05	44.8	44.8	44.8	88	41.5	1	3	90	0.00	30.037 
04:10	44.8	44.8	44.8	88	41.5	1	2	90	0.00	30.037 
04:15	44.8	44.8	44.8	88	41.5	0	3	90	0.00	30.030 
04:20	44.8	44.8	44.8	89	41.8	0	2	90	0.00	30.030 
04:25	44.8	44.8	44.8	89	41.8	2	4	90	0.00	30.030 
04:30	44.8	44.8	44.8	89	41.8	1	4	90	0.00	30.034 
04:35	44.8	44.8	44.8	89	41.8	1	3	90	0.00	30.034 
04:40	44.8	44.8	44.8	89	41.8	1	3	90	0.00	30.034 
04:45	44.8	44.8	44.8	89	41.8	2	5	90	0.00	30.044 
04:50	44.8	44.8	44.8	89	41.8	0	2	90	0.00	30.044 
04:55	44.8	44.8	44.8	89	41.8	2	3	90	0.00	30.044 
05:00	44.8	44.8	44.8	89	41.8	2	3	90	0.00	30.042 
05:05	44.8	44.8	44.8	89	41.8	1	4	90	0.00	30.042 
05:10	44.6	44.6	44.6	89	41.6	2	4	90	0.00	30.042 
05:15	44.6	44.6	44.6	89	41.6	1	3	90	0.00	30.038 
05:20	44.6	44.6	44.6	90	41.9	1	3	90	0.00	30.038 
05:25	44.6	44.6	44.6	90	41.9	1	3	90	0.00	30.038 
05:30	44.6	44.6	44.6	90	41.9	1	4	90	0.00	30.033 
05:35	44.5	44.5	44.5	90	41.8	2	4	90	0.00	30.033 
05:40	44.5	44.5	44.5	90	41.8	1	4	90	0.00	30.033 
05:45	44.5	44.5	44.5	90	41.8	1	3	90	0.00	30.034 
05:50	44.5	44.5	44.5	90	41.8	1	3	90	0.00	30.034 
05:55	44.5	44.5	44.5	90	41.8	1	3	90	0.00	30.034 
06:00	44.5	44.5	44.5	90	41.8	1	2	90	0.00	30.040 
06:05	44.5	44.5	44.5	90	41.8	1	2	90	0.00	30.040 
06:10	44.5	44.5	44.5	90	41.8	0	2	90	0.00	30.040 
06:15	44.6	44.6	44.6	90	41.9	0	3	90	0.00	30.040 
06:20	44.6	44.6	44.6	90	41.9	0	2	90	0.00	30.040 
06:25	44.6	44.6	44.6	90	41.9	0	2	90	0.00	30.040 
06:30	44.5	44.5	44.5	91	42.0	0	1	90	0.00	30.043 
06:35	44.5	44.5	44.5	91	42.0	1	3	90	0.00	30.043 
06:40	44.5	44.5	44.5	91	42.0	1	3	90	0.00	30.043 
06:45	44.5	44.5	44.5	91	42.0	1	3	90	0.00	30.037 
06:50	44.3	44.3	44.3	91	41.8	1	6	68	0.00	30.037 
06:55	44.3	44.3	44.3	91	41.8	2	4	112	0.00	30.037 
07:00	44.3	44.3	44.3	91	41.8	2	4	112	0.00	30.030 
07:05	44.3	44.3	44.3	91	41.8	2	4	68	0.00	30.030 
07:10	44.2	44.2	44.2	91	41.7	1	5	68	0.00	30.030 
07:15	44.2	44.2	44.2	91	41.7	2	4	90	0.00	30.019 
07:20	44.2	44.2	44.2	91	41.7	3	5	112	0.00	30.019 
07:25	44.2	44.2	44.2	91	41.7	1	4	135	0.00	30.019 
07:30	44.2	44.2	44.2	91	41.7	1	4	135	0.00	30.028 
07:35	44.2	44.2	44.2	91	41.7	2	5	135	0.00	30.028 
07:40	44.2	44.2	44.2	91	41.7	1	3	112	0.00	30.028 
07:45	44.2	44.2	44.2	91	41.7	2	4	112	0.00	30.042 
07:50	44.2	44.2	44.2	91	41.7	1	4	112	0.00	30.042 
07:55	44.2	44.2	44.2	91	41.7	2	4	112	0.00	30.042 
08:00	44.1	44.1	44.1	91	41.6	2	6	112	0.00	30.039 
08:05	44.1	44.1	44.1	91	41.6	3	5	112	0.00	30.039 
08:10	44.1	44.1	44.1	91	41.6	3	5	112	0.00	30.039 
08:15	44.1	44.1	44.1	92	41.9	2	5	90	0.00	30.025 
08:20	44.1	44.1	44.1	92	41.9	2	5	90	0.00	30.025 
08:25	43.9	43.9	43.9	92	41.7	3	7	90	0.00	30.025 
08:30	43.9	43.9	43.9	92	41.7	2	4	90	0.00	30.027 
08:35	43.9	43.9	43.9	92	41.7	2	5	90	0.00	30.027 
08:40	43.9	43.9	43.9	92	41.7	2	5	68	0.00	30.027 
08:45	44.1	44.1	44.1	92	41.9	2	3	68	0.00	30.020 
08:50	44.1	44.1	44.1	92	41.9	2	5	68	0.00	30.020 
08:55	44.1	44.1	44.1	92	41.9	2	4	90	0.00	30.020 
09:00	44.1	44.1	44.1	92	41.9	3	5	90	0.00	30.020 
09:05	44.1	44.1	44.1	93	42.2	3	6	90	0.00	30.020 
09:10	44.1	44.1	44.1	93	42.2	2	6	90	0.00	30.020 
09:15	44.1	44.1	44.1	93	42.2	3	6	90	0.00	30.014 
09:20	44.2	44.2	44.2	93	42.3	3	6	90	0.00	30.014 
09:25	44.2	44.2	44.2	93	42.3	3	6	112	0.00	30.014 
09:30	44.3	44.3	44.3	93	42.4	3	7	68	0.00	30.009 
09:35	44.3	44.3	44.3	93	42.4	3	7	112	0.00	30.009 
09:40	44.5	44.5	44.5	93	42.6	3	5	90	0.00	30.009 
09:45	44.5	42.5	44.5	93	42.6	4	7	90	0.00	30.012 
09:50	44.5	44.5	44.5	93	42.6	2	5	90	0.00	30.012 
09:55	44.5	44.5	44.5	93	42.6	2	5	112	0.00	30.012 
10:00	44.6	44.6	44.6	93	42.7	2	6	90	0.00	30.011 
10:05	44.6	44.6	44.6	93	42.7	2	5	112	0.00	30.011 
10:10	44.8	44.8	44.8	93	42.9	2	4	90	0.00	30.011 
10:15	44.8	44.8	44.8	93	42.9	1	3	90	0.00	29.998 
10:20	44.9	44.9	44.9	93	43.0	1	3	90	0.00	29.998 
10:25	45.1	45.1	45.1	93	43.2	0	2	90	0.00	29.998 
10:30	45.1	45.1	45.1	93	43.2	0	2	90	0.00	30.029 
10:35	45.2	45.2	45.2	93	43.3	0	3	90	0.00	30.029 
10:40	45.4	45.4	45.4	93	43.5	0	4	90	0.00	30.029 
10:45	45.4	45.4	45.4	93	43.5	1	3	45	0.00	30.027 
10:50	45.5	45.5	45.5	93	43.6	1	4	45	0.00	30.027 
10:55	45.5	45.5	45.5	93	43.6	0	1	112	0.00	30.027 
11:00	45.7	45.7	45.7	93	43.8	0	0	---	0.00	30.029 
11:05	45.8	45.8	45.8	93	43.9	0	2	112	0.00	30.029 
11:10	46.0	46.0	46.0	93	44.1	1	3	112	0.00	30.029 
11:15	46.1	46.1	46.1	93	44.2	0	1	112	0.00	30.029 
11:20	46.2	46.2	46.2	93	44.3	0	2	112	0.00	30.029 
11:25	46.4	46.4	46.4	93	44.5	0	2	112	0.00	30.029 
11:30	46.4	46.4	46.4	93	44.5	0	2	112	0.00	30.024 
11:35	46.5	46.5	46.5	93	44.6	1	3	112	0.00	30.024 
11:40	46.7	46.7	46.7	93	44.8	1	3	112	0.00	30.024 
11:45	46.8	46.8	46.8	93	44.9	2	4	90	0.00	29.996 
11:50	47.0	47.0	47.0	93	45.1	2	5	90	0.00	29.996 
11:55	47.1	45.5	47.1	93	45.2	4	8	90	0.00	29.996 
12:00	47.3	47.3	47.3	93	45.4	3	9	90	0.00	29.997 
12:05	47.4	47.4	47.4	93	45.5	3	6	112	0.00	29.997 
12:10	47.6	47.6	47.6	93	45.7	3	5	90	0.00	29.997 
12:15	47.7	47.7	47.7	93	45.8	2	4	90	0.00	30.010 
12:20	47.9	47.9	47.9	93	46.0	2	4	90	0.00	30.010 
12:25	48.0	48.0	48.0	93	46.1	3	6	112	0.00	30.010 
12:30	48.3	48.3	48.3	92	46.1	3	5	112	0.00	30.010 
12:35	48.5	48.5	48.5	92	46.3	2	5	90	0.00	30.010 
12:40	48.6	48.6	48.6	92	46.4	3	6	90	0.00	30.010 
12:45	48.9	48.9	48.9	92	46.7	3	7	90	0.00	29.998 
12:50	49.1	49.1	49.1	92	46.9	3	6	112	0.00	29.998 
12:55	49.2	49.2	49.2	92	47.0	3	7	90	0.00	29.998 
13:00	49.5	49.5	49.5	92	47.3	1	6	45	0.00	30.011 
13:05	49.6	49.6	49.6	92	47.4	2	7	90	0.00	30.011 
13:10	49.8	49.8	49.8	92	47.6	3	6	90	0.00	30.011 
13:15	49.9	49.9	49.9	91	47.4	2	5	90	0.00	30.003 
13:20	50.1	50.1	50.1	91	47.6	3	9	90	0.00	30.003 
13:25	50.2	50.2	50.2	91	47.7	3	9	90	0.00	30.003 
13:30	50.5	50.5	50.5	91	48.0	2	5	90	0.00	29.991 
13:35	50.8	50.8	50.8	90	48.0	2	6	90	0.00	29.991 
13:40	51.0	51.0	51.0	90	48.2	2	5	90	0.00	29.991 
13:45	51.3	51.3	51.3	90	48.5	1	4	90	0.00	29.993 
13:50	51.4	51.4	51.4	89	48.3	2	5	90	0.00	29.993 
13:55	51.6	51.6	51.6	89	48.5	3	5	90	0.00	29.993 
14:00	51.9	51.9	51.9	88	48.5	2	6	90	0.00	29.978 
14:05	52.0	52.0	52.0	88	48.6	2	5	90	0.00	29.978 
14:10	52.5	52.5	52.5	88	49.0	2	5	112	0.00	29.978 
14:15	52.9	52.9	52.9	88	49.4	1	3	112	0.00	29.982 
14:20	52.9	52.9	52.9	87	49.1	2	7	90	0.00	29.982 
14:25	53.3	53.3	53.3	88	49.8	1	4	90	0.00	29.982 
14:30	53.6	53.6	53.6	86	49.5	1	4	112	0.00	29.987 
14:35	53.9	53.9	53.9	86	49.8	2	5	112	0.00	29.987 
14:40	53.9	53.9	53.9	86	49.8	2	4	112	0.00	29.987 
14:45	54.1	54.1	54.1	86	50.0	2	4	90	0.00	29.975 
14:50	54.2	54.2	54.2	85	49.8	2	5	90	0.00	29.975 
14:55	54.5	54.5	54.5	85	50.1	2	5	90	0.00	29.975 
15:00	55.0	55.0	55.0	85	50.6	1	5	112	0.00	29.967 
15:05	55.1	55.1	55.1	84	50.4	3	7	112	0.00	29.967 
15:10	55.3	55.3	55.3	85	50.9	4	10	90	0.00	29.967 
15:15	55.3	55.3	55.3	84	50.5	3	5	90	0.00	29.956 
15:20	55.6	55.6	55.6	84	50.8	2	6	112	0.00	29.956 
15:25	56.5	56.5	56.5	84	51.7	2	5	112	0.00	29.956 
15:30	56.5	56.5	56.5	83	51.4	3	9	90	0.00	29.951 
15:35	56.7	56.7	56.7	82	51.3	3	5	90	0.00	29.951 
15:40	57.2	57.2	57.2	82	51.8	1	3	68	0.00	29.951 
15:45	57.6	57.6	57.6	82	52.1	2	6	112	0.00	29.950 
15:50	57.8	57.8	57.8	81	52.0	3	7	90	0.00	29.950 
15:55	58.3	58.3	58.3	81	52.5	3	7	90	0.00	29.950 
16:00	58.1	58.1	58.1	81	52.3	4	9	112	0.00	29.948 
16:05	58.1	58.1	58.1	80	52.0	3	7	68	0.00	29.948 
16:10	58.0	58.0	58.0	81	52.2	3	7	112	0.00	29.948 
16:15	57.8	57.8	57.8	82	52.3	3	10	112	0.00	29.945 
16:20	58.0	58.0	58.0	82	52.5	1	4	112	0.00	29.945 
16:25	58.3	58.3	58.3	82	52.8	3	6	90	0.00	29.945 
16:30	58.9	58.9	58.9	81	53.1	2	5	90	0.00	29.939 
16:35	58.9	58.9	58.9	81	53.1	2	7	90	0.00	29.939 
16:40	59.0	59.0	59.0	80	52.8	2	6	90	0.00	29.939 
16:45	59.0	59.0	59.0	81	53.2	3	6	90	0.00	29.937 
16:50	59.3	59.3	59.3	80	53.1	2	5	90	0.00	29.937 
16:55	59.8	59.8	59.8	79	53.3	3	6	90	0.00	29.937 
17:00	59.9	59.9	59.9	79	53.4	2	6	90	0.00	29.934 
17:05	60.1	60.1	60.1	78	53.2	4	7	90	0.00	29.934 
17:10	59.8	59.8	59.8	80	53.6	3	7	90	0.00	29.934 
17:15	59.9	59.9	59.9	79	53.4	2	6	135	0.00	29.931 
17:20	59.9	59.9	59.9	78	53.0	2	8	112	0.00	29.931 
17:25	59.9	59.9	59.9	79	53.4	3	6	112	0.00	29.931 
17:30	60.1	60.1	60.1	79	53.6	1	4	112	0.00	29.938 
17:35	60.2	60.2	60.2	79	53.7	1	6	112	0.00	29.938 
17:40	60.2	60.2	60.2	78	53.3	2	6	112	0.00	29.938 
17:45	60.1	60.1	60.1	79	53.6	1	5	90	0.00	29.938 
17:50	60.1	60.1	60.1	78	53.2	2	6	90	0.00	29.938 
17:55	60.1	60.1	60.1	79	53.6	2	7	90	0.00	29.938 
18:00	59.9	59.9	59.9	79	53.4	2	5	90	0.00	29.941 
18:05	60.1	60.1	60.1	80	53.9	1	4	90	0.00	29.941 
18:10	60.2	60.2	60.2	80	54.0	2	6	90	0.00	29.941 
18:15	60.4	60.4	60.4	79	53.9	1	3	90	0.00	29.952 
18:20	60.2	60.2	60.2	79	53.7	2	4	90	0.00	29.952 
18:25	60.1	60.1	60.1	79	53.6	3	6	90	0.00	29.952 
18:30	60.1	60.1	60.1	80	53.9	2	4	112	0.00	29.952 
18:35	59.9	59.9	59.9	80	53.7	2	6	90	0.00	29.952 
18:40	60.1	60.1	60.1	80	53.9	2	4	90	0.00	29.952 
18:45	60.1	60.1	60.1	80	53.9	1	4	90	0.00	29.950 
18:50	60.1	60.1	60.1	80	53.9	2	5	90	0.00	29.950 
18:55	59.9	59.9	59.9	80	53.7	3	6	90	0.00	29.950 
19:00	59.9	59.9	59.9	80	53.7	2	5	90	0.00	29.949 
19:05	59.9	59.9	59.9	80	53.7	1	3	90	0.00	29.949 
19:10	59.8	59.8	59.8	80	53.6	2	4	90	0.00	29.949 
19:15	59.6	59.6	59.6	81	53.8	2	5	90	0.00	29.946 
19:20	59.5	59.5	59.5	81	53.7	2	4	112	0.00	29.946 
19:25	59.3	59.3	59.3	81	53.5	2	4	112	0.00	29.946 
19:30	59.3	59.3	59.3	81	53.5	1	4	68	0.00	29.952 
19:35	59.2	59.2	59.2	82	53.7	1	3	68	0.00	29.952 
19:40	59.0	59.0	59.0	82	53.5	1	3	135	0.00	29.952 
19:45	58.9	58.9	58.9	82	53.4	1	3	135	0.00	29.954 
19:50	58.7	58.7	58.7	83	53.5	1	3	135	0.00	29.954 
19:55	58.4	58.4	58.4	83	53.3	1	4	135	0.00	29.954 
20:00	58.3	58.3	58.3	83	53.2	2	3	135	0.00	29.955 
20:05	58.1	58.1	58.1	83	53.0	0	2	68	0.00	29.955 
20:10	58.0	58.0	58.0	84	53.2	0	4	68	0.00	29.955 
20:15	57.6	57.6	57.6	84	52.8	0	2	68	0.00	29.956 
20:20	57.3	57.3	57.3	85	52.8	0	2	68	0.00	29.956 
20:25	57.0	57.0	57.0	85	52.5	0	2	68	0.00	29.956 
20:30	56.9	56.9	56.9	86	52.8	1	2	68	0.00	29.958 
20:35	56.7	56.7	56.7	86	52.6	1	2	68	0.00	29.958 
20:40	56.5	56.5	56.5	86	52.4	1	3	68	0.00	29.958 
20:45	56.3	56.3	56.3	87	52.5	0	1	68	0.00	29.958 
20:50	56.2	56.2	56.2	87	52.4	0	2	68	0.00	29.958 
20:55	55.9	55.9	55.9	87	52.1	0	2	68	0.00	29.958 
21:00	55.7	55.7	55.7	88	52.2	0	1	68	0.00	29.963 
21:05	55.4	55.4	55.4	88	51.9	0	1	68	0.00	29.963 
21:10	55.3	55.3	55.3	88	51.8	0	1	68	0.00	29.963 
21:15	55.0	55.0	55.0	88	51.5	0	0	---	0.00	29.972 
21:20	54.7	54.7	54.7	88	51.2	0	0	---	0.00	29.972 
21:25	54.5	54.5	54.5	89	51.3	0	0	---	0.00	29.972 
21:30	54.4	54.4	54.4	90	51.5	0	2	68	0.00	29.972 
21:35	54.2	54.2	54.2	90	51.3	1	2	68	0.00	29.972 
21:40	54.2	54.2	54.2	90	51.3	0	2	68	0.00	29.972 
21:45	54.1	54.1	54.1	90	51.2	0	2	68	0.00	29.972 
21:50	54.1	54.1	54.1	90	51.2	0	2	68	0.00	29.972 
21:55	53.9	53.9	53.9	91	51.3	1	3	68	0.00	29.972 
22:00	53.8	53.8	53.8	91	51.2	0	1	68	0.00	29.965 
22:05	53.6	53.6	53.6	91	51.0	0	2	68	0.00	29.965 
22:10	53.5	53.5	53.5	91	50.9	0	2	68	0.00	29.965 
22:15	53.5	53.5	53.5	91	50.9	1	3	68	0.00	29.970 
22:20	53.3	53.3	53.3	91	50.7	1	3	68	0.00	29.970 
22:25	53.3	53.3	53.3	91	50.7	1	3	68	0.00	29.970 
22:30	53.2	53.2	53.2	91	50.6	1	3	68	0.00	29.967 
22:35	53.1	53.1	53.1	92	50.8	0	1	68	0.00	29.967 
22:40	52.9	52.9	52.9	92	50.6	0	2	68	0.00	29.967 
22:45	52.8	52.8	52.8	92	50.5	0	2	68	0.00	29.966 
22:50	52.8	52.8	52.8	92	50.5	1	3	68	0.00	29.966 
22:55	52.8	52.8	52.8	92	50.5	1	3	68	0.00	29.966 
23:00	52.6	52.6	52.6	92	50.3	1	3	68	0.00	29.959 
23:05	52.5	52.5	52.5	92	50.2	2	4	68	0.00	29.959 
23:10	52.5	52.5	52.5	92	50.2	1	3	68	0.00	29.959 
23:15	52.3	52.3	52.3	92	50.0	1	4	68	0.00	29.955 
23:20	52.2	52.2	52.2	92	49.9	1	4	68	0.00	29.955 
23:25	52.0	52.0	52.0	92	49.7	0	2	68	0.00	29.955 
23:30	51.9	51.9	51.9	92	49.6	0	2	68	0.00	29.943 
23:35	51.7	51.7	51.7	93	49.7	0	2	68	0.00	29.943 
23:40	51.7	51.7	51.7	93	49.7	1	3	68	0.00	29.943 
23:45	51.7	51.7	51.7	93	49.7	0	2	68	0.00	29.939 
23:50	51.7	51.7	51.7	93	49.7	0	1	68	0.00	29.939 
23:55	51.6	51.6	51.6	93	49.6	0	1	68	0.00	29.939 

CoCoRaHS
IN-AL-39
A2 Web Hosting
Creative Commons License
GoDaddy
search engine by freefind advanced

loaded 2018-11-19 10:17:10 • last modified 2010-11-18 10:43:29
Privacy PolicyDisclaimer
• wx.awcolley.com is powered by PmWiki v.2002016 •
• all content (unless otherwise noted) © 2018 A W Colley